Time;durP1;ratioP1;P1;durP2;ratioP2;P2;SDS_P1;SDS_P2;PMS_P1;PMS_P2;Temp;Humidity;BMP_temperature;BMP_pressure;BME280_temperature;BME280_humidity;BME280_pressure;Samples;Min_cycle;Max_cycle;Signal;HPM_P1;HPM_P2
2021/12/31 05:02:42;;;;;;;47.15;23.83;;;;;;;4.49;100.00;100280.56;4499212;31;280053;-84
2021/12/31 05:05:29;;;;;;;49.88;25.60;;;;;;;4.74;100.00;100282.72;4495167;31;34104;-84
2021/12/31 05:08:15;;;;;;;51.22;25.62;;;;;;;5.03;100.00;100285.16;4481377;31;34664;-83
2021/12/31 05:11:02;;;;;;;51.65;27.67;;;;;;;5.18;100.00;100286.09;4506549;31;35693;-83
2021/12/31 05:13:48;;;;;;;57.20;28.77;;;;;;;5.21;100.00;100298.37;4491529;31;34908;-83
2021/12/31 05:16:35;;;;;;;53.90;29.27;;;;;;;5.04;100.00;100284.91;4500921;31;34734;-83
2021/12/31 05:19:21;;;;;;;52.28;28.52;;;;;;;5.02;100.00;100294.37;4505727;31;35188;-83
2021/12/31 05:22:08;;;;;;;53.33;27.67;;;;;;;5.95;100.00;100302.97;4473921;31;34615;-83
2021/12/31 05:24:54;;;;;;;52.38;27.10;;;;;;;5.91;100.00;100301.00;4477624;31;34552;-83
2021/12/31 05:27:40;;;;;;;44.78;25.08;;;;;;;6.07;100.00;100292.69;4483227;31;34121;-83
2021/12/31 05:30:27;;;;;;;43.97;24.02;;;;;;;6.51;100.00;100299.62;4500388;31;35315;-84
2021/12/31 05:33:13;;;;;;;41.30;22.90;;;;;;;6.81;100.00;100295.38;4485801;31;34880;-83
2021/12/31 05:36:00;;;;;;;37.95;20.80;;;;;;;6.67;100.00;100301.31;4478434;31;34434;-83
2021/12/31 05:38:46;;;;;;;37.17;21.12;;;;;;;6.83;100.00;100298.63;4481388;31;34114;-83
2021/12/31 05:41:34;;;;;;;35.72;21.08;;;;;;;7.17;100.00;100296.19;4495804;31;35832;-84
2021/12/31 05:44:21;;;;;;;28.35;18.20;;;;;;;7.32;100.00;100298.94;4479450;31;34951;-83
2021/12/31 05:47:08;;;;;;;30.08;17.02;;;;;;;7.18;100.00;100304.13;4478514;31;34225;-83
2021/12/31 05:49:55;;;;;;;31.05;17.27;;;;;;;7.29;100.00;100304.13;4497955;31;34198;-83
2021/12/31 05:52:41;;;;;;;29.92;18.45;;;;;;;7.19;100.00;100304.94;4476951;31;34559;-83
2021/12/31 05:55:27;;;;;;;31.48;17.90;;;;;;;6.82;100.00;100314.16;4482442;31;35641;-83
2021/12/31 05:58:14;;;;;;;31.25;18.83;;;;;;;6.94;100.00;100319.34;4478731;31;34480;-83
2021/12/31 06:01:00;;;;;;;36.20;18.83;;;;;;;6.80;100.00;100310.88;4498070;31;34263;-83
2021/12/31 06:03:47;;;;;;;37.22;20.00;;;;;;;5.92;100.00;100318.94;4486821;31;34279;-83
2021/12/31 06:06:33;;;;;;;39.35;20.77;;;;;;;5.84;100.00;100318.37;4497905;31;35022;-83
2021/12/31 06:09:20;;;;;;;43.72;21.58;;;;;;;5.24;100.00;100322.28;4468933;31;35069;-83
2021/12/31 06:12:06;;;;;;;46.53;23.08;;;;;;;5.85;100.00;100325.44;4491570;31;33741;-82
2021/12/31 06:14:54;;;;;;;45.38;23.02;;;;;;;5.80;100.00;100322.69;4474552;31;34652;-83
2021/12/31 06:17:40;;;;;;;57.75;26.10;;;;;;;5.84;100.00;100317.56;4487375;31;34735;-83
2021/12/31 06:20:28;;;;;;;66.97;27.23;;;;;;;5.84;100.00;100323.81;4470862;31;35231;-83
2021/12/31 06:23:15;;;;;;;49.63;23.95;;;;;;;5.46;100.00;100324.06;4483949;31;34953;-83
2021/12/31 06:26:01;;;;;;;46.75;23.77;;;;;;;5.18;100.00;100331.47;4482280;31;34677;-82
2021/12/31 06:28:47;;;;;;;49.47;24.02;;;;;;;4.97;100.00;100336.69;4495843;31;35486;-82
2021/12/31 06:31:34;;;;;;;59.88;25.30;;;;;;;4.66;100.00;100334.75;4457317;31;34465;-82
2021/12/31 06:34:20;;;;;;;45.55;23.70;;;;;;;4.69;100.00;100336.94;4470451;31;33368;-83
2021/12/31 06:37:07;;;;;;;49.55;25.25;;;;;;;4.73;100.00;100329.94;4480878;31;34247;-82
2021/12/31 06:39:53;;;;;;;53.80;24.33;;;;;;;4.45;100.00;100339.94;4484787;31;35933;-83
2021/12/31 06:42:40;;;;;;;49.85;24.73;;;;;;;4.72;100.00;100339.16;4491517;31;34592;-82
2021/12/31 06:45:27;;;;;;;54.75;26.92;;;;;;;4.43;100.00;100338.56;4473998;31;34103;-82
2021/12/31 06:48:13;;;;;;;83.55;29.25;;;;;;;4.23;100.00;100348.06;4467864;31;35579;-83
2021/12/31 06:50:59;;;;;;;83.25;29.23;;;;;;;3.89;100.00;100349.25;4480741;31;34949;-82
2021/12/31 06:53:46;;;;;;;57.62;28.05;;;;;;;3.88;100.00;100344.91;4483290;31;34227;-82
2021/12/31 06:56:32;;;;;;;71.50;32.20;;;;;;;4.08;100.00;100341.66;4476420;31;34900;-82
2021/12/31 06:59:18;;;;;;;70.20;33.08;;;;;;;3.81;100.00;100345.06;4468010;31;35465;-82
2021/12/31 07:02:05;;;;;;;71.97;32.17;;;;;;;3.81;100.00;100345.06;4469339;31;34749;-82
2021/12/31 07:04:52;;;;;;;71.72;34.45;;;;;;;4.01;100.00;100344.53;4482949;31;34515;-82
2021/12/31 07:07:38;;;;;;;64.87;33.40;;;;;;;4.53;100.00;100352.25;4471802;31;33061;-82
2021/12/31 07:10:24;;;;;;;58.13;31.65;;;;;;;4.65;100.00;100358.38;4467607;31;35595;-82
2021/12/31 14:35:38;;;;;;;7.05;3.30;;;;;;;13.00;83.55;100243.59;4489859;31;227896;-79
2021/12/31 14:38:29;;;;;;;5.95;3.20;;;;;;;13.00;83.55;100243.59;4477030;32;34664;-79
2021/12/31 14:41:21;;;;;;;12.83;5.03;;;;;;;12.99;82.32;100246.69;4488917;32;34564;-79
2021/12/31 14:44:08;;;;;;;7.30;3.90;;;;;;;12.69;83.40;100238.00;4466751;31;35938;-80
2021/12/31 14:47:00;;;;;;;6.55;3.75;;;;;;;13.00;82.08;100240.84;4491689;31;35375;-79
2021/12/31 14:49:47;;;;;;;9.77;7.50;;;;;;;12.45;84.24;100248.47;4463521;32;34169;-81
2021/12/31 14:52:35;;;;;;;8.52;6.10;;;;;;;12.02;86.68;100244.16;4464322;32;35443;-80
2021/12/31 14:55:22;;;;;;;7.25;4.53;;;;;;;12.24;85.15;100239.84;4464701;32;34956;-80
2021/12/31 14:58:08;;;;;;;6.57;3.28;;;;;;;11.99;86.19;100238.47;4478392;32;34524;-80
2021/12/31 15:00:57;;;;;;;7.45;3.30;;;;;;;12.09;85.24;100233.56;4476977;32;33198;-80
2021/12/31 15:03:44;;;;;;;7.32;3.30;;;;;;;12.20;84.95;100234.16;4473506;32;34633;-79
2021/12/31 15:06:35;;;;;;;8.82;2.87;;;;;;;12.04;85.24;100225.44;4479168;31;34918;-80
2021/12/31 15:09:21;;;;;;;8.15;3.40;;;;;;;11.85;85.73;100222.78;4472960;32;35498;-80
2021/12/31 15:12:10;;;;;;;6.70;2.60;;;;;;;11.86;85.35;100226.34;4476322;32;34028;-80
2021/12/31 15:14:57;;;;;;;7.87;2.40;;;;;;;11.99;84.26;100231.03;4475915;32;35554;-81
2021/12/31 15:17:44;;;;;;;5.07;2.47;;;;;;;11.80;85.02;100230.28;4475798;32;35025;-79
2021/12/31 15:20:31;;;;;;;4.72;2.50;;;;;;;11.78;84.98;100232.50;4485940;32;35389;-80
2021/12/31 15:23:18;;;;;;;5.40;2.90;;;;;;;11.81;84.88;100248.38;4488746;32;34182;-80
2021/12/31 15:26:05;;;;;;;6.60;3.47;;;;;;;11.75;84.95;100238.62;4482799;32;35655;-80
2021/12/31 15:28:51;;;;;;;5.40;3.08;;;;;;;12.05;83.62;100235.28;4473037;32;34631;-80
2021/12/31 15:31:38;;;;;;;6.15;3.30;;;;;;;12.69;80.31;100245.44;4469143;32;35403;-80
2021/12/31 15:34:25;;;;;;;9.85;4.03;;;;;;;12.68;79.75;100238.34;4487229;31;35069;-80
2021/12/31 15:37:12;;;;;;;9.52;6.20;;;;;;;11.90;82.92;100250.16;4487210;32;34728;-80
2021/12/31 15:39:59;;;;;;;10.93;6.82;;;;;;;12.17;81.73;100259.50;4485903;31;35079;-80
2021/12/31 15:42:45;;;;;;;14.90;8.25;;;;;;;11.62;84.59;100253.97;4463549;32;34452;-80
2021/12/31 15:45:31;;;;;;;11.38;7.32;;;;;;;12.34;81.01;100256.94;4480296;32;34955;-80
2021/12/31 15:48:18;;;;;;;13.77;6.62;;;;;;;11.63;84.10;100264.63;4459494;32;34815;-80
2021/12/31 15:51:04;;;;;;;11.93;6.43;;;;;;;11.69;84.70;100252.44;4462130;32;34928;-79
2021/12/31 15:53:50;;;;;;;15.05;8.32;;;;;;;12.40;81.12;100243.91;4476825;32;35452;-79
2021/12/31 15:56:37;;;;;;;12.10;6.90;;;;;;;12.04;82.21;100250.16;4454733;32;34061;-80
2021/12/31 15:59:24;;;;;;;8.10;4.47;;;;;;;11.91;81.73;100249.03;4464855;32;34684;-80
2021/12/31 16:02:12;;;;;;;7.47;4.40;;;;;;;11.98;81.83;100245.91;4482897;32;36014;-80
2021/12/31 16:04:59;;;;;;;9.35;4.28;;;;;;;11.41;84.89;100250.75;4463844;32;34529;-80
2021/12/31 16:07:45;;;;;;;7.87;4.40;;;;;;;11.56;84.06;100244.22;4477255;32;35043;-80
2021/12/31 16:10:33;;;;;;;8.32;3.70;;;;;;;11.56;84.19;100249.69;4469247;32;35104;-80
2021/12/31 16:13:19;;;;;;;7.30;4.20;;;;;;;11.44;84.80;100255.62;4444617;32;34913;-79
2021/12/31 16:16:06;;;;;;;7.97;4.50;;;;;;;11.37;85.14;100250.56;4481179;32;34769;-79
2021/12/31 16:18:52;;;;;;;7.45;4.65;;;;;;;11.49;85.11;100255.56;4465018;32;33886;-79
2021/12/31 16:21:39;;;;;;;8.43;4.35;;;;;;;11.42;86.07;100257.91;4460339;32;34701;-79
2021/12/31 16:24:26;;;;;;;8.65;4.70;;;;;;;11.83;83.37;100257.13;4457274;32;34666;-79
2021/12/31 16:27:13;;;;;;;7.75;4.57;;;;;;;11.42;85.37;100253.22;4481040;32;34542;-79
2021/12/31 16:30:02;;;;;;;8.77;5.18;;;;;;;11.22;87.12;100268.09;4475674;32;34137;-82
2021/12/31 16:32:48;;;;;;;8.70;5.32;;;;;;;11.75;84.99;100255.91;4461228;32;35605;-82
2021/12/31 16:35:35;;;;;;;9.80;5.80;;;;;;;10.99;88.13;100266.28;4464007;32;34984;-80
2021/12/31 16:38:21;;;;;;;7.87;4.82;;;;;;;11.66;85.19;100260.47;4464037;32;34472;-82
2021/12/31 16:41:08;;;;;;;9.02;4.97;;;;;;;11.69;84.15;100265.34;4477702;32;34148;-80
2021/12/31 16:43:54;;;;;;;9.98;5.18;;;;;;;10.98;87.87;100265.44;4467690;32;34676;-82
2021/12/31 16:46:40;;;;;;;10.18;6.45;;;;;;;10.98;88.03;100259.97;4478855;32;34937;-81
2021/12/31 16:49:27;;;;;;;12.85;7.68;;;;;;;11.15;87.79;100261.34;4468137;32;35426;-79
2021/12/31 16:52:14;;;;;;;11.15;7.10;;;;;;;11.58;84.98;100252.94;4478780;32;34180;-80
2021/12/31 16:55:04;;;;;;;10.05;5.68;;;;;;;11.12;86.00;100271.00;4466170;32;34619;-80
2021/12/31 16:57:52;;;;;;;12.32;6.60;;;;;;;11.34;85.82;100255.84;4459893;32;34927;-80
2021/12/31 17:00:39;;;;;;;12.00;6.75;;;;;;;11.91;81.60;100251.78;4477036;32;34481;-80
2021/12/31 17:03:26;;;;;;;12.30;8.25;;;;;;;12.11;80.23;100253.28;4456948;32;34832;-80
2021/12/31 17:06:13;;;;;;;10.32;6.50;;;;;;;12.14;79.29;100254.63;4462394;32;35601;-80
2021/12/31 17:08:59;;;;;;;10.10;6.45;;;;;;;12.00;80.26;100254.63;4463478;32;34856;-80
2021/12/31 17:11:46;;;;;;;8.82;5.25;;;;;;;12.14;78.48;100251.88;4464001;32;34553;-80
2021/12/31 17:14:33;;;;;;;8.80;5.55;;;;;;;12.07;78.74;100255.03;4452348;32;34994;-80
2021/12/31 17:17:22;;;;;;;10.35;5.78;;;;;;;11.99;79.43;100250.25;4453509;32;35477;-80
2021/12/31 17:20:09;;;;;;;9.13;6.00;;;;;;;11.96;79.14;100250.87;4474394;32;34848;-80
2021/12/31 17:22:57;;;;;;;7.80;4.62;;;;;;;11.98;78.86;100254.13;4446652;32;33467;-80
2021/12/31 17:25:43;;;;;;;7.65;4.55;;;;;;;12.09;78.20;100246.47;4467885;32;34030;-80
2021/12/31 17:28:30;;;;;;;16.45;10.35;;;;;;;12.17;77.59;100247.69;4464606;32;34651;-80
2021/12/31 17:31:16;;;;;;;41.42;22.95;;;;;;;11.89;77.72;100239.47;4455166;32;35168;-83
2021/12/31 17:34:02;;;;;;;36.72;20.95;;;;;;;11.92;78.13;100244.34;4455299;32;35426;-80
2021/12/31 17:36:51;;;;;;;23.02;14.57;;;;;;;11.88;78.32;100254.31;4465365;32;34088;-80
2021/12/31 17:39:37;;;;;;;16.00;10.82;;;;;;;12.17;77.52;100250.44;4466270;32;34122;-82
2021/12/31 17:42:23;;;;;;;11.98;8.35;;;;;;;12.08;77.41;100253.91;4464162;32;36023;-82
2021/12/31 17:45:10;;;;;;;16.75;13.07;;;;;;;11.95;77.79;100245.66;4477936;32;34646;-82
2021/12/31 17:47:56;;;;;;;15.55;11.05;;;;;;;12.20;76.94;100247.09;4461997;32;35013;-80
2021/12/31 17:50:42;;;;;;;17.33;11.75;;;;;;;12.24;76.01;100240.69;4471971;32;34704;-80
2021/12/31 17:53:29;;;;;;;16.20;9.80;;;;;;;11.61;78.23;100246.84;4480331;32;35032;-80
2021/12/31 17:56:15;;;;;;;12.20;8.25;;;;;;;11.45;77.88;100247.13;4453415;32;35559;-80
2021/12/31 17:59:01;;;;;;;14.57;9.15;;;;;;;11.46;77.92;100242.44;4476405;32;35037;-80
2021/12/31 18:01:47;;;;;;;11.15;7.32;;;;;;;11.60;77.26;100251.50;4462125;32;34410;-80
2021/12/31 18:04:34;;;;;;;10.95;6.40;;;;;;;11.49;77.22;100244.59;4473429;32;35035;-80
2021/12/31 18:07:20;;;;;;;11.25;6.22;;;;;;;11.70;76.83;100234.88;4477489;32;35312;-80
2021/12/31 18:10:07;;;;;;;9.35;6.00;;;;;;;11.75;76.86;100228.44;4463872;32;34918;-80
2021/12/31 18:12:53;;;;;;;10.68;7.03;;;;;;;11.79;76.20;100228.66;4454342;32;34582;-80
2021/12/31 18:15:40;;;;;;;23.83;15.80;;;;;;;11.51;76.49;100228.62;4466318;32;35965;-79
2021/12/31 18:18:26;;;;;;;37.05;23.05;;;;;;;11.05;78.40;100226.69;4461358;32;34438;-80
2021/12/31 18:21:12;;;;;;;45.05;31.02;;;;;;;10.90;79.83;100232.41;4472418;32;34332;-79
2021/12/31 18:23:59;;;;;;;43.72;29.15;;;;;;;10.53;81.14;100225.84;4476352;32;35620;-79
2021/12/31 18:26:45;;;;;;;37.45;27.73;;;;;;;10.60;81.29;100220.81;4464035;32;34903;-79
2021/12/31 18:29:31;;;;;;;39.38;28.23;;;;;;;10.47;81.93;100210.59;4455270;32;34518;-79
2021/12/31 18:32:18;;;;;;;36.55;26.35;;;;;;;10.60;81.66;100225.50;4466077;32;34263;-80
2021/12/31 18:35:07;;;;;;;38.22;26.60;;;;;;;10.60;81.86;100215.34;4462938;32;34589;-79
2021/12/31 18:37:53;;;;;;;33.97;24.85;;;;;;;10.55;81.89;100215.41;4468027;32;35935;-79
2021/12/31 18:40:39;;;;;;;30.30;21.80;;;;;;;10.43;82.43;100217.78;4454147;32;34533;-79
2021/12/31 18:43:26;;;;;;;43.30;30.27;;;;;;;10.75;81.36;100217.03;4464377;32;34247;-79
2021/12/31 18:46:22;;;;;;;55.80;34.90;;;;;;;9.85;84.00;100227.00;4462618;32;35548;-80
2021/12/31 18:49:18;;;;;;;44.67;29.52;;;;;;;9.72;84.41;100219.47;4479447;32;35058;-79
2021/12/31 18:52:05;;;;;;;46.37;29.92;;;;;;;10.08;82.95;100222.63;4467718;32;35396;-79
2021/12/31 18:54:51;;;;;;;45.95;29.52;;;;;;;10.11;82.53;100219.28;4459088;32;35051;-79
2021/12/31 18:57:37;;;;;;;44.67;29.92;;;;;;;10.44;80.96;100224.88;4453132;32;33629;-79
2021/12/31 19:00:24;;;;;;;50.88;31.62;;;;;;;10.26;80.45;100205.38;4459334;32;35960;-79
2021/12/31 19:03:10;;;;;;;65.15;37.50;;;;;;;10.01;80.69;100213.94;4464387;32;34442;-79
2021/12/31 19:05:59;;;;;;;68.00;41.03;;;;;;;9.14;83.73;100215.69;4473649;32;34226;-79
2021/12/31 19:08:48;;;;;;;61.17;36.78;;;;;;;8.70;86.96;100219.31;4464156;32;34683;-79
2021/12/31 19:11:34;;;;;;;47.62;30.62;;;;;;;9.22;83.90;100211.50;4462060;32;34889;-79
2021/12/31 19:14:21;;;;;;;52.50;33.67;;;;;;;9.33;82.53;100193.88;4476298;32;35463;-79
2021/12/31 19:17:12;;;;;;;58.90;36.13;;;;;;;9.31;83.05;100198.84;4463109;32;34233;-79
2021/12/31 19:19:58;;;;;;;51.50;33.90;;;;;;;9.37;83.34;100203.16;4464446;32;34548;-79
2021/12/31 19:22:44;;;;;;;55.85;35.72;;;;;;;9.43;83.43;100206.66;4479258;32;35987;-79
2021/12/31 19:25:33;;;;;;;58.63;35.92;;;;;;;9.22;84.03;100195.09;4480339;32;34506;-79
2021/12/31 19:28:20;;;;;;;53.65;34.72;;;;;;;9.36;83.95;100197.97;4479330;32;34188;-79
2021/12/31 19:31:09;;;;;;;58.75;36.92;;;;;;;9.53;83.69;100192.84;4455506;32;35496;-79
2021/12/31 19:33:55;;;;;;;64.57;39.50;;;;;;;9.48;83.64;100183.88;4462829;32;35982;-79
2021/12/31 19:36:44;;;;;;;68.45;41.37;;;;;;;9.46;84.10;100176.81;4465089;32;34593;-79
2021/12/31 19:39:31;;;;;;;62.97;39.33;;;;;;;9.60;83.94;100176.13;4478278;32;33251;-79
2021/12/31 19:42:18;;;;;;;57.90;36.03;;;;;;;9.85;83.22;100186.75;4467921;32;34568;-79
2021/12/31 19:45:05;;;;;;;64.97;40.38;;;;;;;9.95;81.64;100185.00;4469369;32;35118;-79
2021/12/31 19:47:52;;;;;;;63.72;41.08;;;;;;;8.81;85.19;100198.19;4461459;32;34453;-79
2021/12/31 19:50:41;;;;;;;75.45;46.33;;;;;;;7.97;88.96;100198.16;4465793;32;34109;-79
2021/12/31 19:53:29;;;;;;;69.12;41.90;;;;;;;7.10;92.94;100203.84;4465905;32;35091;-79
2021/12/31 19:56:16;;;;;;;45.83;30.40;;;;;;;8.55;87.76;100205.75;4453477;32;35464;-79
2021/12/31 19:59:02;;;;;;;38.90;24.98;;;;;;;7.70;92.54;100214.06;4456171;32;35310;-79
2021/12/31 20:01:49;;;;;;;38.08;23.12;;;;;;;7.99;91.83;100206.84;4456146;32;34208;-79
2021/12/31 20:04:35;;;;;;;37.88;21.73;;;;;;;7.88;93.67;100222.47;4455882;32;34621;-79
2021/12/31 20:07:26;;;;;;;35.80;22.10;;;;;;;8.28;90.10;100219.81;4453673;32;34886;-79
2021/12/31 20:10:13;;;;;;;38.43;22.70;;;;;;;7.43;96.38;100213.31;4465815;32;34553;-79
2021/12/31 20:13:00;;;;;;;36.42;22.73;;;;;;;8.33;90.67;100225.25;4467065;32;33956;-79
2021/12/31 20:15:46;;;;;;;34.90;20.12;;;;;;;8.11;91.88;100229.19;4478013;32;34661;-78
2021/12/31 20:18:33;;;;;;;33.05;19.15;;;;;;;8.94;86.98;100216.69;4479822;32;35464;-79
2021/12/31 20:21:20;;;;;;;34.90;21.27;;;;;;;9.17;84.62;100225.25;4466977;32;34597;-79
2021/12/31 20:24:09;;;;;;;46.22;28.45;;;;;;;9.17;84.01;100217.84;4451587;32;34125;-79
2021/12/31 20:26:56;;;;;;;55.97;33.35;;;;;;;9.03;84.03;100205.94;4466583;32;35574;-79
2021/12/31 20:29:42;;;;;;;61.67;37.25;;;;;;;8.92;84.57;100212.59;4454156;32;34904;-79
2021/12/31 20:32:31;;;;;;;54.75;33.47;;;;;;;9.01;84.35;100208.94;4463612;32;34580;-79
2021/12/31 20:35:18;;;;;;;52.97;31.95;;;;;;;9.22;83.93;100198.66;4455081;32;34245;-79
2021/12/31 20:38:04;;;;;;;53.30;32.80;;;;;;;9.11;84.54;100218.19;4456375;32;35574;-79
2021/12/31 20:40:51;;;;;;;49.83;31.20;;;;;;;9.20;84.63;100211.00;4480585;32;35012;-79
2021/12/31 20:43:37;;;;;;;40.38;25.70;;;;;;;9.35;84.33;100202.63;4465633;32;34936;-79
2021/12/31 20:46:23;;;;;;;41.03;25.48;;;;;;;9.15;84.75;100213.75;4464456;32;35214;-79
2021/12/31 20:49:10;;;;;;;37.10;22.95;;;;;;;9.01;85.65;100208.12;4466138;32;34700;-79
2021/12/31 20:51:56;;;;;;;39.22;26.27;;;;;;;9.37;84.74;100199.63;4480428;32;35735;-79
2021/12/31 20:54:45;;;;;;;44.55;27.80;;;;;;;9.11;84.65;100202.59;4478781;32;35344;-79
2021/12/31 20:57:31;;;;;;;52.90;32.15;;;;;;;8.88;85.94;100234.22;4477065;32;35067;-79
2021/12/31 21:00:18;;;;;;;61.35;37.00;;;;;;;9.20;83.04;100224.66;4454258;32;35557;-78
2021/12/31 21:03:04;;;;;;;54.10;34.42;;;;;;;9.04;83.32;100228.62;4466951;32;35970;-79
2021/12/31 21:05:53;;;;;;;56.28;34.42;;;;;;;9.04;84.47;100223.16;4473463;32;34590;-79
2021/12/31 21:08:39;;;;;;;56.72;35.50;;;;;;;8.81;85.66;100230.97;4478397;32;33252;-79
2021/12/31 21:11:26;;;;;;;51.30;30.27;;;;;;;8.84;86.02;100219.47;4465288;32;34686;-79
2021/12/31 21:14:12;;;;;;;50.00;29.95;;;;;;;9.19;85.46;100225.75;4464722;32;34412;-79
2021/12/31 21:16:58;;;;;;;41.97;25.20;;;;;;;9.24;85.73;100212.84;4463571;32;32903;-79
2021/12/31 21:19:48;;;;;;;41.40;25.92;;;;;;;9.14;85.97;100201.22;4462834;32;34213;-79
2021/12/31 21:22:36;;;;;;;44.10;25.73;;;;;;;8.79;88.23;100200.38;4466511;32;34687;-79
2021/12/31 21:25:22;;;;;;;41.22;25.45;;;;;;;9.09;87.55;100201.25;4479304;32;34956;-79
2021/12/31 21:28:09;;;;;;;42.35;25.95;;;;;;;9.05;87.08;100194.72;4464486;32;35458;-79
2021/12/31 21:30:55;;;;;;;50.20;28.62;;;;;;;9.01;86.09;100189.81;4467269;32;35053;-79
2021/12/31 21:33:44;;;;;;;53.20;33.45;;;;;;;7.83;93.17;100197.13;4476886;32;35537;-79
2021/12/31 21:36:30;;;;;;;48.35;29.60;;;;;;;7.65;94.46;100191.16;4465030;32;34879;-79
2021/12/31 21:39:19;;;;;;;45.83;29.12;;;;;;;8.03;91.15;100188.84;4464886;32;35389;-79
2021/12/31 21:42:08;;;;;;;51.45;31.92;;;;;;;8.30;89.77;100173.94;4476257;32;35219;-79
2021/12/31 21:44:54;;;;;;;53.70;33.25;;;;;;;8.20;89.04;100195.84;4475424;32;34610;-79
2021/12/31 21:47:41;;;;;;;60.95;36.47;;;;;;;8.37;88.30;100182.66;4476151;32;35935;-79
2021/12/31 21:50:28;;;;;;;60.72;38.17;;;;;;;8.79;87.03;100173.06;4454192;32;34463;-79
2021/12/31 21:53:14;;;;;;;59.75;34.63;;;;;;;8.42;88.22;100174.44;4466874;32;35040;-79
2021/12/31 21:56:04;;;;;;;57.35;35.80;;;;;;;8.64;88.11;100171.28;4474925;32;34603;-79
2021/12/31 21:58:50;;;;;;;59.80;35.55;;;;;;;7.77;90.86;100190.03;4465294;32;34945;-79
